Time;durP1;ratioP1;P1;durP2;ratioP2;P2;SDS_P1;SDS_P2;PMS_P1;PMS_P2;Temp;Humidity;BMP_temperature;BMP_pressure;BME280_temperature;BME280_humidity;BME280_pressure;Samples;Min_cycle;Max_cycle;Signal;HPM_P1;HPM_P2
2023/03/13 00:01:33;;;;;;;18.77;5.57;;;;;;;;;;5114308;27;20477;-67
2023/03/13 00:04:01;;;;;;;26.93;6.23;;;;;;;;;;5113620;28;20560;-67
2023/03/13 00:06:31;;;;;;;15.47;4.43;;;;;;;;;;5113401;28;20484;-67
2023/03/13 00:09:00;;;;;;;18.83;5.67;;;;;;;;;;5116096;27;20529;-68
2023/03/13 00:11:27;;;;;;;12.83;5.23;;;;;;;;;;5112958;28;20436;-70
2023/03/13 00:13:55;;;;;;;9.30;4.60;;;;;;;;;;5112846;28;20439;-70
2023/03/13 00:16:22;;;;;;;20.30;5.03;;;;;;;;;;5113185;28;20432;-69
2023/03/13 00:18:51;;;;;;;29.10;5.87;;;;;;;;;;5113063;28;20773;-70
2023/03/13 00:21:18;;;;;;;15.20;4.57;;;;;;;;;;5113235;28;20816;-70
2023/03/13 00:23:46;;;;;;;21.37;6.87;;;;;;;;;;5113599;28;20441;-69
2023/03/13 00:26:15;;;;;;;19.50;4.60;;;;;;;;;;5116783;28;20493;-70
2023/03/13 00:28:43;;;;;;;12.33;5.00;;;;;;;;;;5117176;28;20440;-70
2023/03/13 00:31:11;;;;;;;17.83;4.70;;;;;;;;;;5117141;28;20795;-70
2023/03/13 00:33:39;;;;;;;11.63;5.23;;;;;;;;;;5116898;28;20543;-69
2023/03/13 00:36:08;;;;;;;15.43;4.67;;;;;;;;;;5117004;28;20439;-68
2023/03/13 00:38:35;;;;;;;20.20;5.30;;;;;;;;;;5117058;28;20432;-69
2023/03/13 00:41:03;;;;;;;21.90;5.63;;;;;;;;;;5117741;28;20472;-69
2023/03/13 00:43:32;;;;;;;15.50;4.60;;;;;;;;;;5117247;28;20431;-69
2023/03/13 00:45:59;;;;;;;14.23;5.10;;;;;;;;;;5117373;28;20449;-69
2023/03/13 00:48:26;;;;;;;22.33;5.20;;;;;;;;;;5117100;28;20434;-69
2023/03/13 00:50:54;;;;;;;15.40;4.60;;;;;;;;;;5117235;28;20437;-69
2023/03/13 00:53:21;;;;;;;17.30;5.40;;;;;;;;;;5116877;28;20984;-69
2023/03/13 00:55:52;;;;;;;14.60;4.60;;;;;;;;;;5117164;28;20433;-68
2023/03/13 00:58:20;;;;;;;20.43;4.50;;;;;;;;;;5116966;28;20443;-69
2023/03/13 01:00:48;;;;;;;21.67;5.40;;;;;;;;;;5117416;27;20479;-68
2023/03/13 01:03:15;;;;;;;20.37;4.57;;;;;;;;;;5117609;27;20974;-67
2023/03/13 01:05:43;;;;;;;12.27;4.70;;;;;;;;;;5117651;28;20768;-67
2023/03/13 01:08:10;;;;;;;13.73;4.03;;;;;;;;;;5118742;27;20851;-67
2023/03/13 01:10:37;;;;;;;20.80;4.53;;;;;;;;;;5116944;28;20461;-68
2023/03/13 01:13:05;;;;;;;17.67;4.23;;;;;;;;;;5117032;28;20427;-67
2023/03/13 01:15:35;;;;;;;19.60;4.53;;;;;;;;;;5116764;28;20435;-68
2023/03/13 01:18:03;;;;;;;23.03;5.93;;;;;;;;;;5116577;28;20468;-68
2023/03/13 01:20:30;;;;;;;18.60;4.80;;;;;;;;;;5116267;28;20467;-68
2023/03/13 01:22:58;;;;;;;18.17;5.13;;;;;;;;;;5116241;28;20450;-68
2023/03/13 01:25:25;;;;;;;16.87;4.00;;;;;;;;;;5116431;28;20905;-68
2023/03/13 01:27:52;;;;;;;26.37;5.70;;;;;;;;;;5116461;28;20441;-68
2023/03/13 01:30:19;;;;;;;14.60;4.70;;;;;;;;;;5116418;28;20437;-68
2023/03/13 01:32:46;;;;;;;17.00;5.43;;;;;;;;;;5116710;28;20557;-68
2023/03/13 01:35:17;;;;;;;20.93;5.13;;;;;;;;;;5116282;28;20437;-68
2023/03/13 01:37:44;;;;;;;16.67;5.07;;;;;;;;;;5116703;28;20434;-68
2023/03/13 01:40:12;;;;;;;16.60;4.87;;;;;;;;;;5116490;28;20518;-68
2023/03/13 01:42:55;;;;;;;19.37;4.50;;;;;;;;;;5115709;28;20489;-68
2023/03/13 01:45:41;;;;;;;15.83;5.57;;;;;;;;;;5116225;28;20942;-68
2023/03/13 01:48:08;;;;;;;15.67;4.50;;;;;;;;;;5116251;28;20438;-68
2023/03/13 01:50:36;;;;;;;23.70;7.27;;;;;;;;;;5116021;28;20521;-68
2023/03/13 01:53:04;;;;;;;12.67;4.70;;;;;;;;;;5115895;28;20771;-68
2023/03/13 01:55:31;;;;;;;23.27;5.37;;;;;;;;;;5115647;28;20425;-68
2023/03/13 01:57:58;;;;;;;18.93;5.07;;;;;;;;;;5115566;28;20522;-68
2023/03/13 02:00:27;;;;;;;13.33;5.00;;;;;;;;;;5115851;28;20431;-68
2023/03/13 02:02:56;;;;;;;16.63;5.50;;;;;;;;;;5117198;27;20482;-68
2023/03/13 02:05:26;;;;;;;23.47;5.70;;;;;;;;;;5115555;28;20515;-68
2023/03/13 02:07:55;;;;;;;12.30;4.60;;;;;;;;;;5116949;27;20454;-68
2023/03/13 02:10:23;;;;;;;15.60;4.20;;;;;;;;;;5115176;28;20916;-68
2023/03/13 02:12:51;;;;;;;19.97;4.60;;;;;;;;;;5115194;28;20797;-68
2023/03/13 02:15:19;;;;;;;20.77;5.50;;;;;;;;;;5115435;28;20901;-68
2023/03/13 02:17:48;;;;;;;25.77;5.77;;;;;;;;;;5115143;28;20436;-68
2023/03/13 02:20:16;;;;;;;13.87;6.50;;;;;;;;;;5115634;28;20424;-68
2023/03/13 02:22:47;;;;;;;23.20;5.40;;;;;;;;;;5115291;28;20475;-68
2023/03/13 02:25:22;;;;;;;22.23;5.00;;;;;;;;;;5116143;28;20415;-68
2023/03/13 02:27:51;;;;;;;19.13;6.10;;;;;;;;;;5115813;28;20418;-67
2023/03/13 02:30:18;;;;;;;19.27;6.60;;;;;;;;;;5114977;28;20447;-68
2023/03/13 02:32:46;;;;;;;17.03;5.63;;;;;;;;;;5114793;28;20450;-68
2023/03/13 02:35:14;;;;;;;20.40;5.13;;;;;;;;;;5115226;28;20431;-67
2023/03/13 02:37:42;;;;;;;12.37;5.07;;;;;;;;;;5115473;28;20442;-67
2023/03/13 02:40:11;;;;;;;23.53;6.07;;;;;;;;;;5115097;28;20449;-67
2023/03/13 02:42:39;;;;;;;17.17;4.73;;;;;;;;;;5115360;28;20467;-67
2023/03/13 02:45:08;;;;;;;17.33;6.30;;;;;;;;;;5115004;28;20436;-67
2023/03/13 02:47:36;;;;;;;20.20;5.67;;;;;;;;;;5114517;28;20792;-67
2023/03/13 02:50:03;;;;;;;18.13;5.80;;;;;;;;;;5114839;28;20759;-68
2023/03/13 02:52:31;;;;;;;15.37;4.90;;;;;;;;;;5114894;28;20447;-68
2023/03/13 02:55:00;;;;;;;17.70;5.67;;;;;;;;;;5114777;28;20439;-68
2023/03/13 02:57:28;;;;;;;17.17;6.13;;;;;;;;;;5114723;28;20438;-68
2023/03/13 02:59:55;;;;;;;25.70;5.80;;;;;;;;;;5114589;28;20469;-68
2023/03/13 03:02:23;;;;;;;22.73;5.50;;;;;;;;;;5116310;27;20964;-68
2023/03/13 03:04:51;;;;;;;16.90;6.03;;;;;;;;;;5114476;28;20468;-68
2023/03/13 03:07:18;;;;;;;19.90;5.77;;;;;;;;;;5114312;28;20920;-68
2023/03/13 03:09:45;;;;;;;21.70;5.43;;;;;;;;;;5116027;27;20477;-68
2023/03/13 03:12:12;;;;;;;15.87;5.80;;;;;;;;;;5114655;28;20430;-68
2023/03/13 03:14:39;;;;;;;18.30;5.50;;;;;;;;;;5114351;28;20438;-68
2023/03/13 03:17:06;;;;;;;19.30;5.50;;;;;;;;;;5114129;28;20435;-68
2023/03/13 03:19:35;;;;;;;14.80;4.73;;;;;;;;;;5114672;28;20435;-68
2023/03/13 03:22:02;;;;;;;16.40;6.77;;;;;;;;;;5113990;28;20480;-68
2023/03/13 03:24:30;;;;;;;18.23;6.23;;;;;;;;;;5113958;28;20908;-68
2023/03/13 03:26:57;;;;;;;14.07;5.20;;;;;;;;;;5114261;28;20470;-68
2023/03/13 03:29:24;;;;;;;21.13;7.13;;;;;;;;;;5113886;28;20431;-68
2023/03/13 03:31:51;;;;;;;14.53;6.47;;;;;;;;;;5114239;28;20445;-68
2023/03/13 03:34:18;;;;;;;22.20;6.37;;;;;;;;;;5114562;28;20443;-68
2023/03/13 03:36:47;;;;;;;26.70;7.63;;;;;;;;;;5114187;28;20434;-68
2023/03/13 03:39:14;;;;;;;23.00;6.17;;;;;;;;;;5114043;28;20472;-68
2023/03/13 03:41:41;;;;;;;18.37;5.93;;;;;;;;;;5113939;28;20468;-67
2023/03/13 03:44:08;;;;;;;15.87;6.30;;;;;;;;;;5114453;28;20431;-68
2023/03/13 03:46:36;;;;;;;20.50;5.70;;;;;;;;;;5114368;28;20435;-67
2023/03/13 03:49:03;;;;;;;14.50;5.70;;;;;;;;;;5114334;28;20434;-68
2023/03/13 03:51:30;;;;;;;19.47;5.97;;;;;;;;;;5113642;28;20529;-67
2023/03/13 03:53:59;;;;;;;20.70;6.77;;;;;;;;;;5113534;28;20442;-68
2023/03/13 03:56:26;;;;;;;19.57;6.80;;;;;;;;;;5113923;28;20446;-67
2023/03/13 03:58:53;;;;;;;20.90;8.40;;;;;;;;;;5114101;28;20436;-67
2023/03/13 04:01:20;;;;;;;22.10;7.10;;;;;;;;;;5120133;27;20505;-67
2023/03/13 04:03:48;;;;;;;18.00;5.77;;;;;;;;;;5117538;28;20471;-67
2023/03/13 04:06:15;;;;;;;15.30;6.80;;;;;;;;;;5117792;28;20434;-68
2023/03/13 04:08:42;;;;;;;17.53;7.00;;;;;;;;;;5119634;27;20451;-68
2023/03/13 04:11:10;;;;;;;16.30;6.50;;;;;;;;;;5117558;28;20526;-67
2023/03/13 04:13:38;;;;;;;15.53;6.00;;;;;;;;;;5118058;28;20433;-67
2023/03/13 04:16:07;;;;;;;20.53;6.90;;;;;;;;;;5117831;28;20440;-68
2023/03/13 04:18:34;;;;;;;14.53;7.07;;;;;;;;;;5117877;28;20493;-69
2023/03/13 04:21:02;;;;;;;17.67;7.10;;;;;;;;;;5117924;28;20905;-67
2023/03/13 04:23:29;;;;;;;11.10;5.43;;;;;;;;;;5117911;28;20472;-66
2023/03/13 04:25:56;;;;;;;23.03;6.50;;;;;;;;;;5117717;28;20430;-66
2023/03/13 04:28:25;;;;;;;16.60;7.10;;;;;;;;;;5117766;28;20779;-67
2023/03/13 04:30:56;;;;;;;12.90;7.57;;;;;;;;;;5117753;28;20427;-67
2023/03/13 04:33:23;;;;;;;10.07;5.73;;;;;;;;;;5117596;27;20505;-69
2023/03/13 04:35:50;;;;;;;14.43;7.17;;;;;;;;;;5136235;27;20446;-67
2023/03/13 04:38:17;;;;;;;11.00;6.67;;;;;;;;;;5137965;27;20428;-66
2023/03/13 04:40:44;;;;;;;17.20;7.37;;;;;;;;;;5137943;27;20437;-67
2023/03/13 04:43:11;;;;;;;14.10;8.23;;;;;;;;;;5137852;27;20476;-67
2023/03/13 04:45:40;;;;;;;15.23;7.07;;;;;;;;;;5137308;27;20498;-67
2023/03/13 04:48:07;;;;;;;12.73;7.00;;;;;;;;;;5138035;27;20425;-67
2023/03/13 04:50:34;;;;;;;13.30;6.40;;;;;;;;;;5137402;27;20941;-67
2023/03/13 04:53:01;;;;;;;10.10;6.93;;;;;;;;;;5137996;27;20433;-68
2023/03/13 04:55:29;;;;;;;12.43;7.63;;;;;;;;;;5137606;27;20426;-68
2023/03/13 04:57:56;;;;;;;13.20;6.90;;;;;;;;;;5137381;27;20936;-68
2023/03/13 05:00:23;;;;;;;14.80;7.53;;;;;;;;;;5137822;27;20436;-68
2023/03/13 05:02:52;;;;;;;9.90;6.53;;;;;;;;;;5137217;27;20473;-68
2023/03/13 05:05:19;;;;;;;14.53;9.23;;;;;;;;;;5137174;27;20514;-68
2023/03/13 05:07:46;;;;;;;14.73;8.37;;;;;;;;;;5137236;27;20441;-68
2023/03/13 05:10:13;;;;;;;16.47;9.23;;;;;;;;;;5136868;27;20434;-68
2023/03/13 05:12:41;;;;;;;12.00;9.90;;;;;;;;;;5137343;27;20443;-69
2023/03/13 05:15:09;;;;;;;18.87;9.17;;;;;;;;;;5137350;27;20433;-68
2023/03/13 05:17:36;;;;;;;16.97;9.67;;;;;;;;;;5136836;27;20437;-68
2023/03/13 05:20:06;;;;;;;13.00;8.30;;;;;;;;;;5136796;27;20928;-69
2023/03/13 05:22:33;;;;;;;18.50;9.90;;;;;;;;;;5137123;27;20973;-68
2023/03/13 05:25:00;;;;;;;12.23;9.33;;;;;;;;;;5137072;27;20806;-68
2023/03/13 05:27:28;;;;;;;11.97;9.97;;;;;;;;;;5137028;27;20453;-68
2023/03/13 05:29:55;;;;;;;15.07;11.03;;;;;;;;;;5137011;27;20430;-68
2023/03/13 05:32:22;;;;;;;16.63;11.30;;;;;;;;;;5136609;27;20426;-68
2023/03/13 05:34:49;;;;;;;13.17;10.80;;;;;;;;;;5136455;27;20449;-68
2023/03/13 05:37:18;;;;;;;18.57;11.33;;;;;;;;;;5136798;27;20423;-68
2023/03/13 05:39:45;;;;;;;17.10;12.80;;;;;;;;;;5136691;27;20525;-68
2023/03/13 05:42:12;;;;;;;19.13;11.80;;;;;;;;;;5136606;27;20556;-68
2023/03/13 05:44:39;;;;;;;17.27;12.70;;;;;;;;;;5136447;27;20434;-79
2023/03/13 05:47:07;;;;;;;16.23;12.27;;;;;;;;;;5136272;27;20431;-75
2023/03/13 05:49:34;;;;;;;19.97;12.70;;;;;;;;;;5136235;27;20482;-68
2023/03/13 05:52:01;;;;;;;25.13;15.70;;;;;;;;;;5136725;27;20441;-68
2023/03/13 05:54:30;;;;;;;19.90;14.67;;;;;;;;;;5136089;27;20937;-66
2023/03/13 05:56:57;;;;;;;24.03;13.70;;;;;;;;;;5136811;27;20444;-66
2023/03/13 05:59:24;;;;;;;18.13;14.47;;;;;;;;;;5136419;27;20441;-66
2023/03/13 06:01:51;;;;;;;18.33;15.13;;;;;;;;;;5135916;27;20461;-67
2023/03/13 06:04:18;;;;;;;19.57;15.70;;;;;;;;;;5134370;27;21014;-66
2023/03/13 06:06:46;;;;;;;20.37;16.40;;;;;;;;;;5135641;27;20442;-66
2023/03/13 06:09:14;;;;;;;21.23;17.70;;;;;;;;;;5136307;27;20443;-66
2023/03/13 06:11:42;;;;;;;20.23;16.60;;;;;;;;;;5135599;27;20439;-66
2023/03/13 06:14:09;;;;;;;22.20;18.07;;;;;;;;;;5136262;27;20429;-66
2023/03/13 06:16:37;;;;;;;24.27;19.30;;;;;;;;;;5136356;27;20431;-66
2023/03/13 06:19:04;;;;;;;26.93;19.50;;;;;;;;;;5136188;27;20442;-66
2023/03/13 06:21:31;;;;;;;24.43;18.97;;;;;;;;;;5134883;27;20447;-67
2023/03/13 06:23:58;;;;;;;29.60;19.93;;;;;;;;;;5135630;27;20478;-67
2023/03/13 06:26:25;;;;;;;23.40;19.00;;;;;;;;;;5136184;27;20955;-67
2023/03/13 06:28:54;;;;;;;24.70;19.90;;;;;;;;;;5135987;27;20467;-67
2023/03/13 06:31:21;;;;;;;27.03;22.90;;;;;;;;;;5135516;27;20933;-67
2023/03/13 06:33:48;;;;;;;26.47;18.77;;;;;;;;;;5135827;27;20434;-67
2023/03/13 06:36:15;;;;;;;28.23;21.57;;;;;;;;;;5135747;27;20527;-67
2023/03/13 06:38:43;;;;;;;27.27;18.57;;;;;;;;;;5135406;27;20431;-67
2023/03/13 06:41:10;;;;;;;21.43;17.50;;;;;;;;;;5135245;27;20427;-68
2023/03/13 06:43:39;;;;;;;22.10;17.80;;;;;;;;;;5135613;27;20970;-67
2023/03/13 06:46:08;;;;;;;23.10;18.50;;;;;;;;;;5135590;27;20901;-67
2023/03/13 06:48:35;;;;;;;20.50;18.43;;;;;;;;;;5135462;27;20430;-67
2023/03/13 06:51:02;;;;;;;25.20;17.30;;;;;;;;;;5135199;27;20442;-67
2023/03/13 06:53:29;;;;;;;21.07;15.93;;;;;;;;;;5135474;27;20431;-67
2023/03/13 06:55:57;;;;;;;19.37;15.17;;;;;;;;;;5135490;27;20429;-67
2023/03/13 06:58:24;;;;;;;15.37;13.63;;;;;;;;;;5134889;27;20442;-67
2023/03/13 07:00:51;;;;;;;17.07;13.70;;;;;;;;;;5135325;27;20427;-67
2023/03/13 07:03:20;;;;;;;15.70;13.83;;;;;;;;;;5134828;27;20488;-67
2023/03/13 07:05:47;;;;;;;13.87;12.37;;;;;;;;;;5135741;27;20886;-67
2023/03/13 07:08:14;;;;;;;23.80;14.33;;;;;;;;;;5135189;27;20524;-67
2023/03/13 07:10:44;;;;;;;16.83;13.40;;;;;;;;;;5135178;27;20480;-69
2023/03/13 07:13:11;;;;;;;19.10;13.73;;;;;;;;;;5135173;27;20890;-68
2023/03/13 07:15:39;;;;;;;15.60;12.10;;;;;;;;;;5134793;27;20444;-67
2023/03/13 07:18:06;;;;;;;11.90;10.40;;;;;;;;;;5134623;27;20432;-67
2023/03/13 07:20:34;;;;;;;18.47;11.60;;;;;;;;;;5134963;27;20436;-67
2023/03/13 07:23:02;;;;;;;12.40;10.90;;;;;;;;;;5134823;27;20472;-67
2023/03/13 07:25:29;;;;;;;10.20;8.57;;;;;;;;;;5134526;27;20445;-68
2023/03/13 07:27:56;;;;;;;10.50;8.90;;;;;;;;;;5134349;27;20428;-67
2023/03/13 07:30:23;;;;;;;16.43;9.23;;;;;;;;;;5134495;27;20430;-67
2023/03/13 07:32:50;;;;;;;9.33;8.33;;;;;;;;;;5134065;27;20435;-67
2023/03/13 07:35:18;;;;;;;9.17;7.70;;;;;;;;;;5134412;27;20443;-66
2023/03/13 07:37:46;;;;;;;9.27;7.00;;;;;;;;;;5134319;27;20434;-66
2023/03/13 07:40:13;;;;;;;11.50;7.77;;;;;;;;;;5134673;27;20433;-67
2023/03/13 07:42:41;;;;;;;9.93;7.07;;;;;;;;;;5134747;27;20475;-67
2023/03/13 07:45:08;;;;;;;6.67;6.07;;;;;;;;;;5135138;27;20433;-66
2023/03/13 07:47:36;;;;;;;8.63;7.57;;;;;;;;;;5134095;27;20433;-67
2023/03/13 07:50:03;;;;;;;12.93;7.37;;;;;;;;;;5134597;27;20436;-66
2023/03/13 07:52:31;;;;;;;9.47;6.70;;;;;;;;;;5134140;27;20439;-66
2023/03/13 07:54:59;;;;;;;9.50;6.63;;;;;;;;;;5134740;27;20511;-67
2023/03/13 07:57:27;;;;;;;7.17;6.33;;;;;;;;;;5134111;28;20442;-68
2023/03/13 07:59:54;;;;;;;8.53;5.90;;;;;;;;;;5134404;28;20517;-68
2023/03/13 08:02:21;;;;;;;6.90;6.13;;;;;;;;;;5133920;28;20437;-68
2023/03/13 08:04:48;;;;;;;6.43;5.00;;;;;;;;;;5134552;28;20474;-68
2023/03/13 08:07:15;;;;;;;7.17;5.57;;;;;;;;;;5134318;28;20527;-68
2023/03/13 08:09:43;;;;;;;9.60;7.10;;;;;;;;;;5134425;28;20443;-68
2023/03/13 08:12:11;;;;;;;6.83;5.20;;;;;;;;;;5133977;28;20437;-67
2023/03/13 08:14:39;;;;;;;6.67;4.63;;;;;;;;;;5134120;28;20437;-68
2023/03/13 08:17:06;;;;;;;8.33;4.90;;;;;;;;;;5133959;28;20906;-68
2023/03/13 08:19:33;;;;;;;7.60;4.67;;;;;;;;;;5134207;28;20524;-68
2023/03/13 08:22:00;;;;;;;7.60;4.70;;;;;;;;;;5134037;28;20447;-67
2023/03/13 08:24:27;;;;;;;5.13;4.40;;;;;;;;;;5134202;28;20469;-68
2023/03/13 08:26:54;;;;;;;6.73;4.67;;;;;;;;;;5134577;28;20828;-68
2023/03/13 08:29:23;;;;;;;11.40;4.30;;;;;;;;;;5134039;28;20443;-68
2023/03/13 08:31:51;;;;;;;9.57;6.37;;;;;;;;;;5134246;28;20439;-68
2023/03/13 08:34:19;;;;;;;4.87;4.00;;;;;;;;;;5134330;28;20747;-68
2023/03/13 08:36:47;;;;;;;8.43;4.17;;;;;;;;;;5133725;28;20436;-68
2023/03/13 08:39:15;;;;;;;5.47;4.00;;;;;;;;;;5133606;28;20445;-68
2023/03/13 08:41:42;;;;;;;8.43;4.37;;;;;;;;;;5133989;28;20439;-68
2023/03/13 08:44:11;;;;;;;4.67;4.13;;;;;;;;;;5133875;27;20475;-68
2023/03/13 08:46:40;;;;;;;9.27;4.97;;;;;;;;;;5137392;27;20782;-68
2023/03/13 08:49:08;;;;;;;11.17;5.03;;;;;;;;;;5137800;27;20439;-68
2023/03/13 08:51:36;;;;;;;11.13;5.73;;;;;;;;;;5137512;27;20436;-68
2023/03/13 08:54:04;;;;;;;5.23;3.90;;;;;;;;;;5137685;27;20437;-68
2023/03/13 08:56:32;;;;;;;6.20;4.80;;;;;;;;;;5137843;27;20434;-68
2023/03/13 08:59:00;;;;;;;15.50;4.90;;;;;;;;;;5137226;27;20437;-68
2023/03/13 09:01:27;;;;;;;9.63;5.57;;;;;;;;;;5137272;27;20436;-68
2023/03/13 09:03:56;;;;;;;6.63;4.80;;;;;;;;;;5136944;27;20527;-68
2023/03/13 09:06:23;;;;;;;6.33;5.00;;;;;;;;;;5137489;27;20544;-68
2023/03/13 09:08:51;;;;;;;5.00;4.60;;;;;;;;;;5137460;27;20523;-68
2023/03/13 09:11:19;;;;;;;6.23;4.13;;;;;;;;;;5137469;27;20436;-69
2023/03/13 09:13:47;;;;;;;10.60;5.03;;;;;;;;;;5137091;27;20434;-68
2023/03/13 09:16:15;;;;;;;8.47;5.20;;;;;;;;;;5137692;27;20439;-69
2023/03/13 09:18:42;;;;;;;6.20;4.80;;;;;;;;;;5137880;27;20780;-68
2023/03/13 09:21:12;;;;;;;7.87;4.47;;;;;;;;;;5137611;27;20428;-68
2023/03/13 09:23:39;;;;;;;5.97;4.13;;;;;;;;;;5136802;27;20475;-69
2023/03/13 09:26:07;;;;;;;10.17;4.10;;;;;;;;;;5137262;27;20528;-69
2023/03/13 09:28:34;;;;;;;8.13;5.30;;;;;;;;;;5137099;27;20517;-69
2023/03/13 09:31:07;;;;;;;8.23;4.40;;;;;;;;;;5137070;27;20443;-69
2023/03/13 09:33:34;;;;;;;5.83;3.83;;;;;;;;;;5137119;27;20564;-69
2023/03/13 09:36:02;;;;;;;6.20;4.73;;;;;;;;;;5136691;27;20439;-69
2023/03/13 09:38:30;;;;;;;9.53;3.93;;;;;;;;;;5136923;27;20435;-69
2023/03/13 09:41:01;;;;;;;4.97;2.80;;;;;;;;;;5136934;27;20429;-69
2023/03/13 09:43:35;;;;;;;5.40;4.13;;;;;;;;;;5136726;27;20470;-68
2023/03/13 09:46:05;;;;;;;6.67;3.60;;;;;;;;;;5137043;27;20422;-69
2023/03/13 09:48:33;;;;;;;7.20;4.93;;;;;;;;;;5137109;27;20429;-69
2023/03/13 09:51:04;;;;;;;7.27;3.83;;;;;;;;;;5136654;27;20455;-67
2023/03/13 09:53:35;;;;;;;4.07;2.87;;;;;;;;;;5136408;27;20482;-67
2023/03/13 09:56:04;;;;;;;6.10;3.10;;;;;;;;;;5135879;27;20421;-66
2023/03/13 09:58:33;;;;;;;4.43;2.90;;;;;;;;;;5136228;27;20519;-68
2023/03/13 10:01:03;;;;;;;6.87;3.07;;;;;;;;;;5137023;27;20475;-67
2023/03/13 10:03:31;;;;;;;5.80;3.03;;;;;;;;;;5136230;27;20673;-67
2023/03/13 10:05:59;;;;;;;5.47;2.60;;;;;;;;;;5136400;27;20843;-67
2023/03/13 10:08:27;;;;;;;5.23;3.07;;;;;;;;;;5136054;27;20523;-68
2023/03/13 10:10:58;;;;;;;11.50;3.10;;;;;;;;;;5136288;27;20425;-68
2023/03/13 10:13:28;;;;;;;12.13;4.50;;;;;;;;;;5136606;27;20439;-68
2023/03/13 10:15:57;;;;;;;6.57;3.93;;;;;;;;;;5136292;27;20441;-68
2023/03/13 10:18:24;;;;;;;4.33;3.53;;;;;;;;;;5136122;27;20465;-68
2023/03/13 10:20:52;;;;;;;6.20;2.50;;;;;;;;;;5135757;27;20428;-69
2023/03/13 10:23:22;;;;;;;3.50;2.97;;;;;;;;;;5136403;27;20441;-68
2023/03/13 10:25:49;;;;;;;4.53;3.00;;;;;;;;;;5135908;27;20440;-69
2023/03/13 10:28:19;;;;;;;3.90;2.63;;;;;;;;;;5135626;27;20433;-68
2023/03/13 10:30:48;;;;;;;4.53;3.10;;;;;;;;;;5135894;27;20416;-66
2023/03/13 10:33:20;;;;;;;3.90;3.13;;;;;;;;;;5135768;27;20477;-67
2023/03/13 10:35:47;;;;;;;3.47;2.50;;;;;;;;;;5135433;27;20433;-66
2023/03/13 10:38:15;;;;;;;7.50;2.70;;;;;;;;;;5135906;27;20441;-67
2023/03/13 10:40:42;;;;;;;8.37;3.03;;;;;;;;;;5135235;27;20430;-67
2023/03/13 10:43:14;;;;;;;4.70;2.87;;;;;;;;;;5135983;27;20490;-67
2023/03/13 10:45:42;;;;;;;7.93;2.90;;;;;;;;;;5135665;27;20418;-67
2023/03/13 10:48:13;;;;;;;6.13;2.97;;;;;;;;;;5135703;27;20513;-68
2023/03/13 10:50:43;;;;;;;5.13;2.67;;;;;;;;;;5135883;27;20454;-68
2023/03/13 10:53:27;;;;;;;4.50;3.27;;;;;;;;;;5135462;27;20475;-67
2023/03/13 10:55:55;;;;;;;6.60;3.00;;;;;;;;;;5135447;27;20803;-68
2023/03/13 10:58:24;;;;;;;5.87;3.20;;;;;;;;;;5135534;27;20430;-68
2023/03/13 11:00:53;;;;;;;3.73;3.40;;;;;;;;;;5135299;27;20436;-67
2023/03/13 11:03:24;;;;;;;8.00;3.47;;;;;;;;;;5135388;27;20510;-68
2023/03/13 11:05:55;;;;;;;4.90;3.27;;;;;;;;;;5135573;27;20424;-68
2023/03/13 11:08:24;;;;;;;5.67;3.30;;;;;;;;;;5134442;27;20433;-69
2023/03/13 11:11:09;;;;;;;7.63;3.37;;;;;;;;;;5134802;27;20925;-68
2023/03/13 11:13:37;;;;;;;4.40;2.47;;;;;;;;;;5134786;27;20451;-68
2023/03/13 11:16:11;;;;;;;7.60;3.07;;;;;;;;;;5134952;27;20521;-66
2023/03/13 11:18:42;;;;;;;5.73;2.90;;;;;;;;;;5135165;27;20432;-66
2023/03/13 11:21:14;;;;;;;7.00;3.17;;;;;;;;;;5134711;27;20405;-67
2023/03/13 11:23:43;;;;;;;6.90;3.27;;;;;;;;;;5134520;27;20517;-69
2023/03/13 11:26:12;;;;;;;6.20;2.83;;;;;;;;;;5134424;27;20438;-68
2023/03/13 11:28:51;;;;;;;4.93;2.13;;;;;;;;;;5134616;27;20430;-68
2023/03/13 11:31:22;;;;;;;4.63;2.97;;;;;;;;;;5134411;27;20505;-68
2023/03/13 11:33:56;;;;;;;4.90;2.77;;;;;;;;;;5134384;27;20449;-66
2023/03/13 11:36:26;;;;;;;2.50;2.20;;;;;;;;;;5134780;27;20421;-68
2023/03/13 11:38:56;;;;;;;5.30;3.10;;;;;;;;;;5134549;27;20433;-69
2023/03/13 11:41:33;;;;;;;3.77;2.53;;;;;;;;;;5134505;27;20436;-68
2023/03/13 11:44:21;;;;;;;5.07;2.03;;;;;;;;;;5134755;27;20473;-68
2023/03/13 11:46:57;;;;;;;3.70;2.40;;;;;;;;;;5127731;27;20434;-66
2023/03/13 11:49:32;;;;;;;3.87;2.80;;;;;;;;;;5134353;27;20417;-68
2023/03/13 11:52:07;;;;;;;3.80;2.33;;;;;;;;;;5134081;27;20910;-68
2023/03/13 11:54:49;;;;;;;3.17;2.67;;;;;;;;;;5134611;27;20431;-68
2023/03/13 11:57:19;;;;;;;5.70;3.00;;;;;;;;;;5134516;27;20430;-68
2023/03/13 11:59:53;;;;;;;3.20;2.60;;;;;;;;;;5134818;28;20434;-66
2023/03/13 12:02:25;;;;;;;4.77;2.93;;;;;;;;;;5134140;28;20507;-68
2023/03/13 12:04:55;;;;;;;3.90;2.40;;;;;;;;;;5134823;28;20485;-69
2023/03/13 12:07:27;;;;;;;3.47;2.23;;;;;;;;;;5134351;28;20487;-68
2023/03/13 12:09:56;;;;;;;6.03;2.90;;;;;;;;;;5134449;28;20501;-66
2023/03/13 12:12:29;;;;;;;4.70;2.50;;;;;;;;;;5134369;28;20815;-66
2023/03/13 12:14:59;;;;;;;3.73;2.77;;;;;;;;;;5134342;28;20429;-66
2023/03/13 12:17:32;;;;;;;2.63;2.10;;;;;;;;;;5134370;28;20776;-66
2023/03/13 12:20:02;;;;;;;7.00;2.83;;;;;;;;;;5135238;27;20805;-66
2023/03/13 12:22:32;;;;;;;3.93;2.47;;;;;;;;;;5138414;27;20413;-66
2023/03/13 12:25:03;;;;;;;4.00;2.53;;;;;;;;;;5138290;27;20493;-68
2023/03/13 12:27:32;;;;;;;3.70;3.00;;;;;;;;;;5138308;27;20430;-66
2023/03/13 12:30:02;;;;;;;4.47;2.50;;;;;;;;;;5137895;27;20451;-66
2023/03/13 12:32:35;;;;;;;5.00;2.67;;;;;;;;;;5138089;27;20457;-68
2023/03/13 12:35:07;;;;;;;4.10;2.57;;;;;;;;;;5138240;27;20433;-69
2023/03/13 12:37:39;;;;;;;2.50;2.30;;;;;;;;;;5138227;27;20477;-68
2023/03/13 12:40:11;;;;;;;2.53;2.30;;;;;;;;;;5137828;27;20504;-68
2023/03/13 12:42:44;;;;;;;2.23;1.60;;;;;;;;;;5138092;27;20427;-68
2023/03/13 12:45:15;;;;;;;3.53;2.13;;;;;;;;;;5138322;27;20856;-68
2023/03/13 12:47:54;;;;;;;2.67;1.90;;;;;;;;;;5137763;27;20444;-68
2023/03/13 12:50:29;;;;;;;2.57;2.43;;;;;;;;;;5138042;27;20916;-68
2023/03/13 12:53:13;;;;;;;7.90;2.57;;;;;;;;;;5137907;27;20427;-68
2023/03/13 12:55:55;;;;;;;3.70;2.00;;;;;;;;;;5137794;27;20934;-68
2023/03/13 12:58:38;;;;;;;3.23;1.97;;;;;;;;;;5120838;27;20438;-68
2023/03/13 13:01:06;;;;;;;2.00;1.80;;;;;;;;;;5137497;27;20447;-68
2023/03/13 13:03:36;;;;;;;5.47;1.67;;;;;;;;;;5137113;27;20467;-69
2023/03/13 13:06:08;;;;;;;2.40;1.63;;;;;;;;;;5137540;27;20457;-68
2023/03/13 13:08:37;;;;;;;3.80;1.90;;;;;;;;;;5137440;27;20437;-68
2023/03/13 13:11:23;;;;;;;1.30;1.20;;;;;;;;;;5137729;27;20429;-68
2023/03/13 13:13:50;;;;;;;12.03;1.50;;;;;;;;;;5136965;27;20426;-68
2023/03/13 13:16:19;;;;;;;1.40;1.30;;;;;;;;;;5137019;27;20914;-68
2023/03/13 13:18:48;;;;;;;3.53;1.67;;;;;;;;;;5136864;27;20788;-68
2023/03/13 13:21:20;;;;;;;1.80;1.60;;;;;;;;;;5137568;27;20458;-68
2023/03/13 13:23:52;;;;;;;2.03;1.47;;;;;;;;;;5136914;27;20430;-68
2023/03/13 13:26:47;;;;;;;2.10;1.60;;;;;;;;;;5137284;27;20514;-68
2023/03/13 13:29:32;;;;;;;1.80;1.50;;;;;;;;;;5136887;27;20903;-68
2023/03/13 13:32:01;;;;;;;2.13;1.70;;;;;;;;;;5136433;27;20465;-68
2023/03/13 13:34:47;;;;;;;1.70;1.40;;;;;;;;;;5136834;27;20449;-68
2023/03/13 13:37:29;;;;;;;3.83;1.60;;;;;;;;;;5137455;27;20429;-68
2023/03/13 13:40:10;;;;;;;1.63;1.27;;;;;;;;;;5137058;27;20533;-68
2023/03/13 13:42:47;;;;;;;3.47;1.80;;;;;;;;;;5136487;27;20426;-68
2023/03/13 13:45:26;;;;;;;1.93;1.53;;;;;;;;;;5137546;27;20461;-68
2023/03/13 13:48:15;;;;;;;1.50;1.40;;;;;;;;;;5136795;27;20425;-68
2023/03/13 13:50:57;;;;;;;2.80;1.60;;;;;;;;;;5136884;27;20440;-68
2023/03/13 13:53:31;;;;;;;1.90;1.40;;;;;;;;;;5136442;27;20846;-72
2023/03/13 13:55:58;;;;;;;2.20;2.00;;;;;;;;;;5136442;27;20516;-67
2023/03/13 13:58:27;;;;;;;2.93;1.90;;;;;;;;;;5136288;27;20437;-68
2023/03/13 14:00:56;;;;;;;2.30;1.87;;;;;;;;;;5136951;27;20942;-68
2023/03/13 14:03:24;;;;;;;4.47;1.73;;;;;;;;;;5135945;27;20461;-68
2023/03/13 14:05:54;;;;;;;1.77;1.50;;;;;;;;;;5136603;27;20479;-68
2023/03/13 14:08:22;;;;;;;3.43;1.60;;;;;;;;;;5136355;27;20433;-68
2023/03/13 14:10:51;;;;;;;3.27;1.43;;;;;;;;;;5136057;27;20927;-67
2023/03/13 14:13:19;;;;;;;1.50;1.40;;;;;;;;;;5136167;27;20434;-67
2023/03/13 14:15:47;;;;;;;4.47;1.50;;;;;;;;;;5134967;27;20448;-66
2023/03/13 14:18:18;;;;;;;1.73;1.53;;;;;;;;;;5135657;27;20444;-68
2023/03/13 14:20:57;;;;;;;1.93;1.50;;;;;;;;;;5136137;27;20427;-68
2023/03/13 14:23:31;;;;;;;2.60;2.00;;;;;;;;;;5135732;27;20782;-67
2023/03/13 14:26:09;;;;;;;2.50;1.57;;;;;;;;;;5135573;27;20471;-68
2023/03/13 14:28:39;;;;;;;2.60;1.70;;;;;;;;;;5135843;27;20524;-68
2023/03/13 14:31:06;;;;;;;6.30;2.80;;;;;;;;;;5136445;27;20530;-68
2023/03/13 14:33:34;;;;;;;1.47;1.23;;;;;;;;;;5135671;27;20442;-67
2023/03/13 14:36:02;;;;;;;2.10;1.70;;;;;;;;;;5135683;27;20434;-66
2023/03/13 14:38:30;;;;;;;2.93;1.40;;;;;;;;;;5135883;27;20791;-67
2023/03/13 14:40:57;;;;;;;2.67;1.13;;;;;;;;;;5135301;27;20433;-68
2023/03/13 14:43:29;;;;;;;2.20;1.23;;;;;;;;;;5135041;27;20779;-65
2023/03/13 14:45:57;;;;;;;3.13;1.43;;;;;;;;;;5135493;27;20842;-64